sensor_id;sensor_type;location;lat;lon;timestamp;temperature;humidity
23403;DHT22;11874;48.228;11.684;2022-09-29T00:00:36;10.20;99.90
23403;DHT22;11874;48.228;11.684;2022-09-29T00:03:04;10.20;99.90
23403;DHT22;11874;48.228;11.684;2022-09-29T00:05:33;10.10;99.90
23403;DHT22;11874;48.228;11.684;2022-09-29T00:08:01;10.20;99.90
23403;DHT22;11874;48.228;11.684;2022-09-29T00:10:30;10.20;99.90
23403;DHT22;11874;48.228;11.684;2022-09-29T00:12:58;10.20;99.90
23403;DHT22;11874;48.228;11.684;2022-09-29T00:15:26;10.20;99.90
23403;DHT22;11874;48.228;11.684;2022-09-29T00:17:54;10.20;99.90
23403;DHT22;11874;48.228;11.684;2022-09-29T00:20:39;10.20;99.90
23403;DHT22;11874;48.228;11.684;2022-09-29T00:23:07;10.30;99.90
23403;DHT22;11874;48.228;11.684;2022-09-29T00:25:36;10.30;99.90
23403;DHT22;11874;48.228;11.684;2022-09-29T00:28:04;10.30;99.90
23403;DHT22;11874;48.228;11.684;2022-09-29T00:30:32;10.20;99.90
23403;DHT22;11874;48.228;11.684;2022-09-29T00:33:00;10.20;99.90
23403;DHT22;11874;48.228;11.684;2022-09-29T00:35:28;10.20;99.90
23403;DHT22;11874;48.228;11.684;2022-09-29T00:37:56;10.20;99.90
23403;DHT22;11874;48.228;11.684;2022-09-29T00:40:24;10.20;99.90
23403;DHT22;11874;48.228;11.684;2022-09-29T00:42:53;10.30;99.90
23403;DHT22;11874;48.228;11.684;2022-09-29T00:45:22;10.20;99.90
23403;DHT22;11874;48.228;11.684;2022-09-29T00:47:59;10.20;99.90
23403;DHT22;11874;48.228;11.684;2022-09-29T00:50:37;10.20;99.90
23403;DHT22;11874;48.228;11.684;2022-09-29T00:53:08;10.20;99.90
23403;DHT22;11874;48.228;11.684;2022-09-29T00:55:47;10.20;99.90
23403;DHT22;11874;48.228;11.684;2022-09-29T00:58:26;10.20;99.90
23403;DHT22;11874;48.228;11.684;2022-09-29T01:00:55;10.10;99.90
23403;DHT22;11874;48.228;11.684;2022-09-29T01:03:24;10.20;99.90
23403;DHT22;11874;48.228;11.684;2022-09-29T01:05:55;10.30;99.90
23403;DHT22;11874;48.228;11.684;2022-09-29T01:08:27;10.20;99.90
23403;DHT22;11874;48.228;11.684;2022-09-29T01:10:59;10.20;99.90
23403;DHT22;11874;48.228;11.684;2022-09-29T01:13:30;10.10;99.90
23403;DHT22;11874;48.228;11.684;2022-09-29T01:16:00;10.10;99.90
23403;DHT22;11874;48.228;11.684;2022-09-29T01:18:28;10.10;99.90
23403;DHT22;11874;48.228;11.684;2022-09-29T01:21:03;10.20;99.90
23403;DHT22;11874;48.228;11.684;2022-09-29T01:27:00;10.10;99.90
23403;DHT22;11874;48.228;11.684;2022-09-29T01:30:03;10.10;99.90
23403;DHT22;11874;48.228;11.684;2022-09-29T01:33:13;10.10;99.90
23403;DHT22;11874;48.228;11.684;2022-09-29T01:35:48;10.10;99.90
23403;DHT22;11874;48.228;11.684;2022-09-29T01:38:30;10.10;99.90
23403;DHT22;11874;48.228;11.684;2022-09-29T01:41:06;10.10;99.90
23403;DHT22;11874;48.228;11.684;2022-09-29T01:43:41;10.10;99.90
23403;DHT22;11874;48.228;11.684;2022-09-29T01:46:13;10.10;99.90
23403;DHT22;11874;48.228;11.684;2022-09-29T01:48:47;10.10;99.90
23403;DHT22;11874;48.228;11.684;2022-09-29T01:51:18;10.10;99.90
23403;DHT22;11874;48.228;11.684;2022-09-29T01:53:49;10.10;99.90
23403;DHT22;11874;48.228;11.684;2022-09-29T01:56:21;10.10;99.90
23403;DHT22;11874;48.228;11.684;2022-09-29T01:58:54;10.10;99.90
23403;DHT22;11874;48.228;11.684;2022-09-29T02:01:28;10.10;99.90
23403;DHT22;11874;48.228;11.684;2022-09-29T02:04:02;10.10;99.90
23403;DHT22;11874;48.228;11.684;2022-09-29T02:06:34;10.10;99.90
23403;DHT22;11874;48.228;11.684;2022-09-29T02:09:07;10.10;99.90
23403;DHT22;11874;48.228;11.684;2022-09-29T02:11:37;10.00;99.90
23403;DHT22;11874;48.228;11.684;2022-09-29T02:14:11;10.10;99.90
23403;DHT22;11874;48.228;11.684;2022-09-29T02:16:46;10.10;99.90
23403;DHT22;11874;48.228;11.684;2022-09-29T02:19:18;10.10;99.90
23403;DHT22;11874;48.228;11.684;2022-09-29T02:21:48;10.20;99.90
23403;DHT22;11874;48.228;11.684;2022-09-29T02:24:17;10.10;99.90
23403;DHT22;11874;48.228;11.684;2022-09-29T02:26:45;10.10;99.90
23403;DHT22;11874;48.228;11.684;2022-09-29T02:29:14;10.10;99.90
23403;DHT22;11874;48.228;11.684;2022-09-29T02:31:44;10.10;99.90
23403;DHT22;11874;48.228;11.684;2022-09-29T02:34:17;10.10;99.90
23403;DHT22;11874;48.228;11.684;2022-09-29T02:36:53;10.10;99.90
23403;DHT22;11874;48.228;11.684;2022-09-29T02:39:34;10.20;99.90
23403;DHT22;11874;48.228;11.684;2022-09-29T02:42:16;10.20;99.90
23403;DHT22;11874;48.228;11.684;2022-09-29T02:44:54;10.10;99.90
23403;DHT22;11874;48.228;11.684;2022-09-29T02:47:35;10.10;99.90
23403;DHT22;11874;48.228;11.684;2022-09-29T02:50:20;10.20;99.90
23403;DHT22;11874;48.228;11.684;2022-09-29T02:52:57;10.10;99.90
23403;DHT22;11874;48.228;11.684;2022-09-29T02:55:32;10.00;99.90
23403;DHT22;11874;48.228;11.684;2022-09-29T02:58:05;10.10;99.90
23403;DHT22;11874;48.228;11.684;2022-09-29T03:00:34;10.10;99.90
23403;DHT22;11874;48.228;11.684;2022-09-29T03:03:03;10.10;99.90
23403;DHT22;11874;48.228;11.684;2022-09-29T03:05:32;10.50;99.90
23403;DHT22;11874;48.228;11.684;2022-09-29T03:08:00;10.10;99.90
23403;DHT22;11874;48.228;11.684;2022-09-29T03:10:28;10.10;99.90
23403;DHT22;11874;48.228;11.684;2022-09-29T03:12:56;10.30;99.90
23403;DHT22;11874;48.228;11.684;2022-09-29T03:15:24;10.10;99.90
23403;DHT22;11874;48.228;11.684;2022-09-29T03:17:54;10.00;99.90
23403;DHT22;11874;48.228;11.684;2022-09-29T03:20:23;10.10;99.90
23403;DHT22;11874;48.228;11.684;2022-09-29T03:22:56;10.10;99.90
23403;DHT22;11874;48.228;11.684;2022-09-29T03:25:24;10.10;99.90
23403;DHT22;11874;48.228;11.684;2022-09-29T03:27:52;10.10;99.90
23403;DHT22;11874;48.228;11.684;2022-09-29T03:30:20;10.10;99.90
23403;DHT22;11874;48.228;11.684;2022-09-29T03:32:49;10.10;99.90
23403;DHT22;11874;48.228;11.684;2022-09-29T03:35:17;10.10;99.90
23403;DHT22;11874;48.228;11.684;2022-09-29T03:37:45;10.20;99.90
23403;DHT22;11874;48.228;11.684;2022-09-29T03:40:14;10.10;99.90
23403;DHT22;11874;48.228;11.684;2022-09-29T03:42:44;10.10;99.90
23403;DHT22;11874;48.228;11.684;2022-09-29T03:45:12;10.10;99.90
23403;DHT22;11874;48.228;11.684;2022-09-29T03:47:40;10.10;99.90
23403;DHT22;11874;48.228;11.684;2022-09-29T03:50:08;10.10;99.90
23403;DHT22;11874;48.228;11.684;2022-09-29T03:52:36;10.10;99.90
23403;DHT22;11874;48.228;11.684;2022-09-29T03:55:05;10.10;99.90
23403;DHT22;11874;48.228;11.684;2022-09-29T03:57:34;10.10;99.90
23403;DHT22;11874;48.228;11.684;2022-09-29T04:00:03;10.10;99.90
23403;DHT22;11874;48.228;11.684;2022-09-29T04:02:31;10.10;99.90
23403;DHT22;11874;48.228;11.684;2022-09-29T04:05:00;10.10;99.90
23403;DHT22;11874;48.228;11.684;2022-09-29T04:07:28;10.10;99.90
23403;DHT22;11874;48.228;11.684;2022-09-29T04:09:57;10.10;99.90
23403;DHT22;11874;48.228;11.684;2022-09-29T04:12:25;10.10;99.90
23403;DHT22;11874;48.228;11.684;2022-09-29T04:14:54;10.10;99.90
23403;DHT22;11874;48.228;11.684;2022-09-29T04:17:23;10.20;99.90
23403;DHT22;11874;48.228;11.684;2022-09-29T04:19:50;10.10;99.90
23403;DHT22;11874;48.228;11.684;2022-09-29T04:22:18;10.10;99.90
23403;DHT22;11874;48.228;11.684;2022-09-29T04:24:47;10.10;99.90
23403;DHT22;11874;48.228;11.684;2022-09-29T04:27:15;10.10;99.90
23403;DHT22;11874;48.228;11.684;2022-09-29T04:29:43;10.20;99.90
23403;DHT22;11874;48.228;11.684;2022-09-29T04:32:12;10.10;99.90
23403;DHT22;11874;48.228;11.684;2022-09-29T04:34:40;10.10;99.90
23403;DHT22;11874;48.228;11.684;2022-09-29T04:37:09;10.10;99.90
23403;DHT22;11874;48.228;11.684;2022-09-29T04:39:37;10.10;99.90
23403;DHT22;11874;48.228;11.684;2022-09-29T04:42:05;10.10;99.90
23403;DHT22;11874;48.228;11.684;2022-09-29T04:44:33;10.10;99.90
23403;DHT22;11874;48.228;11.684;2022-09-29T04:47:01;10.10;99.90
23403;DHT22;11874;48.228;11.684;2022-09-29T04:49:30;10.10;99.90
23403;DHT22;11874;48.228;11.684;2022-09-29T04:51:58;10.20;99.90
23403;DHT22;11874;48.228;11.684;2022-09-29T04:54:29;10.20;99.90
23403;DHT22;11874;48.228;11.684;2022-09-29T04:57:03;10.10;99.90
23403;DHT22;11874;48.228;11.684;2022-09-29T04:59:31;10.20;99.90
23403;DHT22;11874;48.228;11.684;2022-09-29T05:01:59;10.10;99.90
23403;DHT22;11874;48.228;11.684;2022-09-29T05:04:27;10.10;99.90
23403;DHT22;11874;48.228;11.684;2022-09-29T05:06:56;10.10;99.90
23403;DHT22;11874;48.228;11.684;2022-09-29T05:09:24;10.20;99.90
23403;DHT22;11874;48.228;11.684;2022-09-29T05:11:58;10.10;99.90
23403;DHT22;11874;48.228;11.684;2022-09-29T05:14:26;10.10;99.90
23403;DHT22;11874;48.228;11.684;2022-09-29T05:16:55;10.10;99.90
23403;DHT22;11874;48.228;11.684;2022-09-29T05:19:22;10.10;99.90
23403;DHT22;11874;48.228;11.684;2022-09-29T05:21:50;10.10;99.90
23403;DHT22;11874;48.228;11.684;2022-09-29T05:24:19;10.10;99.90
23403;DHT22;11874;48.228;11.684;2022-09-29T05:26:47;10.10;99.90
23403;DHT22;11874;48.228;11.684;2022-09-29T05:29:20;10.10;99.90
23403;DHT22;11874;48.228;11.684;2022-09-29T05:31:49;10.10;99.90
23403;DHT22;11874;48.228;11.684;2022-09-29T05:34:17;10.00;99.90
23403;DHT22;11874;48.228;11.684;2022-09-29T05:36:45;10.10;99.90
23403;DHT22;11874;48.228;11.684;2022-09-29T05:39:13;10.10;99.90
23403;DHT22;11874;48.228;11.684;2022-09-29T05:41:42;10.10;99.90
23403;DHT22;11874;48.228;11.684;2022-09-29T05:44:10;10.10;99.90
23403;DHT22;11874;48.228;11.684;2022-09-29T05:46:38;10.10;99.90
23403;DHT22;11874;48.228;11.684;2022-09-29T05:49:06;10.10;99.90
23403;DHT22;11874;48.228;11.684;2022-09-29T05:51:35;10.10;99.90
23403;DHT22;11874;48.228;11.684;2022-09-29T05:54:03;10.10;99.90
23403;DHT22;11874;48.228;11.684;2022-09-29T05:56:30;10.10;99.90
23403;DHT22;11874;48.228;11.684;2022-09-29T05:59:00;10.10;99.90
23403;DHT22;11874;48.228;11.684;2022-09-29T06:01:28;10.10;99.90
23403;DHT22;11874;48.228;11.684;2022-09-29T06:03:56;10.20;99.90
23403;DHT22;11874;48.228;11.684;2022-09-29T06:06:25;10.20;99.90
23403;DHT22;11874;48.228;11.684;2022-09-29T06:08:55;10.20;99.90
23403;DHT22;11874;48.228;11.684;2022-09-29T06:11:25;10.20;99.90
23403;DHT22;11874;48.228;11.684;2022-09-29T06:13:54;10.20;99.90
23403;DHT22;11874;48.228;11.684;2022-09-29T06:16:25;10.20;99.90
23403;DHT22;11874;48.228;11.684;2022-09-29T06:18:53;10.20;99.90
23403;DHT22;11874;48.228;11.684;2022-09-29T06:21:23;10.20;99.90
23403;DHT22;11874;48.228;11.684;2022-09-29T06:23:53;10.30;99.90
23403;DHT22;11874;48.228;11.684;2022-09-29T06:26:22;10.30;99.90
23403;DHT22;11874;48.228;11.684;2022-09-29T06:28:51;10.30;99.90
23403;DHT22;11874;48.228;11.684;2022-09-29T06:31:20;10.30;99.90
23403;DHT22;11874;48.228;11.684;2022-09-29T06:33:50;10.30;99.90
23403;DHT22;11874;48.228;11.684;2022-09-29T06:36:20;10.30;99.90
23403;DHT22;11874;48.228;11.684;2022-09-29T06:39:07;10.30;99.90
23403;DHT22;11874;48.228;11.684;2022-09-29T06:41:35;10.30;99.90
23403;DHT22;11874;48.228;11.684;2022-09-29T06:44:03;10.30;99.90
23403;DHT22;11874;48.228;11.684;2022-09-29T06:46:31;10.40;99.90
23403;DHT22;11874;48.228;11.684;2022-09-29T06:49:00;10.60;99.90
23403;DHT22;11874;48.228;11.684;2022-09-29T06:51:28;10.40;99.90
23403;DHT22;11874;48.228;11.684;2022-09-29T06:54:10;10.40;99.90
23403;DHT22;11874;48.228;11.684;2022-09-29T06:56:38;10.40;99.90
23403;DHT22;11874;48.228;11.684;2022-09-29T06:59:06;10.40;99.90
23403;DHT22;11874;48.228;11.684;2022-09-29T07:01:34;10.50;99.90
23403;DHT22;11874;48.228;11.684;2022-09-29T07:04:04;10.40;99.90
23403;DHT22;11874;48.228;11.684;2022-09-29T07:06:31;10.50;99.90
23403;DHT22;11874;48.228;11.684;2022-09-29T07:09:00;10.50;99.90
23403;DHT22;11874;48.228;11.684;2022-09-29T07:11:28;10.50;99.90
23403;DHT22;11874;48.228;11.684;2022-09-29T07:13:56;10.50;99.90
23403;DHT22;11874;48.228;11.684;2022-09-29T07:16:23;10.50;99.90
23403;DHT22;11874;48.228;11.684;2022-09-29T07:18:52;10.50;99.90
23403;DHT22;11874;48.228;11.684;2022-09-29T07:21:21;10.60;99.90
23403;DHT22;11874;48.228;11.684;2022-09-29T07:23:49;10.60;99.90
23403;DHT22;11874;48.228;11.684;2022-09-29T07:26:17;10.60;99.90
23403;DHT22;11874;48.228;11.684;2022-09-29T07:28:46;10.60;99.90
23403;DHT22;11874;48.228;11.684;2022-09-29T07:31:16;10.60;99.90
23403;DHT22;11874;48.228;11.684;2022-09-29T07:33:46;10.70;99.90
23403;DHT22;11874;48.228;11.684;2022-09-29T07:36:16;10.70;99.90
23403;DHT22;11874;48.228;11.684;2022-09-29T07:38:46;10.70;99.90
23403;DHT22;11874;48.228;11.684;2022-09-29T07:41:15;10.70;99.90
23403;DHT22;11874;48.228;11.684;2022-09-29T07:43:43;10.70;99.90
23403;DHT22;11874;48.228;11.684;2022-09-29T07:46:11;10.80;99.90
23403;DHT22;11874;48.228;11.684;2022-09-29T07:48:39;10.80;99.90
23403;DHT22;11874;48.228;11.684;2022-09-29T07:51:09;10.70;99.90
23403;DHT22;11874;48.228;11.684;2022-09-29T07:53:38;10.80;99.90
23403;DHT22;11874;48.228;11.684;2022-09-29T07:56:10;10.80;99.90
23403;DHT22;11874;48.228;11.684;2022-09-29T07:58:38;10.80;99.90
23403;DHT22;11874;48.228;11.684;2022-09-29T08:01:09;10.90;99.90
23403;DHT22;11874;48.228;11.684;2022-09-29T08:03:41;10.90;99.90
23403;DHT22;11874;48.228;11.684;2022-09-29T08:06:10;11.40;99.90
23403;DHT22;11874;48.228;11.684;2022-09-29T08:08:38;11.00;99.90
23403;DHT22;11874;48.228;11.684;2022-09-29T08:11:13;11.00;99.90
23403;DHT22;11874;48.228;11.684;2022-09-29T08:13:55;11.20;99.90
23403;DHT22;11874;48.228;11.684;2022-09-29T08:16:23;11.00;99.90
23403;DHT22;11874;48.228;11.684;2022-09-29T08:18:51;11.10;99.90
23403;DHT22;11874;48.228;11.684;2022-09-29T08:21:19;11.10;99.90
23403;DHT22;11874;48.228;11.684;2022-09-29T08:23:47;11.10;99.90
23403;DHT22;11874;48.228;11.684;2022-09-29T08:26:17;11.20;99.90
23403;DHT22;11874;48.228;11.684;2022-09-29T08:28:59;11.20;99.90
23403;DHT22;11874;48.228;11.684;2022-09-29T08:31:34;11.20;99.90
23403;DHT22;11874;48.228;11.684;2022-09-29T08:34:04;11.20;99.90
23403;DHT22;11874;48.228;11.684;2022-09-29T08:36:32;11.50;99.90
23403;DHT22;11874;48.228;11.684;2022-09-29T08:39:01;11.30;99.90
23403;DHT22;11874;48.228;11.684;2022-09-29T08:41:51;11.20;99.90
23403;DHT22;11874;48.228;11.684;2022-09-29T08:44:27;11.30;99.90
23403;DHT22;11874;48.228;11.684;2022-09-29T08:47:12;11.40;99.90
23403;DHT22;11874;48.228;11.684;2022-09-29T08:49:45;11.40;99.90
23403;DHT22;11874;48.228;11.684;2022-09-29T08:52:15;11.40;99.90
23403;DHT22;11874;48.228;11.684;2022-09-29T08:54:46;11.40;99.90
23403;DHT22;11874;48.228;11.684;2022-09-29T08:57:18;11.40;99.90
23403;DHT22;11874;48.228;11.684;2022-09-29T08:59:50;11.40;99.90
23403;DHT22;11874;48.228;11.684;2022-09-29T09:02:39;11.40;99.90
23403;DHT22;11874;48.228;11.684;2022-09-29T09:05:17;11.40;99.90
23403;DHT22;11874;48.228;11.684;2022-09-29T09:07:52;11.40;99.90
23403;DHT22;11874;48.228;11.684;2022-09-29T09:10:38;11.40;99.90
23403;DHT22;11874;48.228;11.684;2022-09-29T09:13:32;11.40;99.90
23403;DHT22;11874;48.228;11.684;2022-09-29T09:16:17;11.40;99.90
23403;DHT22;11874;48.228;11.684;2022-09-29T09:19:06;11.50;99.90
23403;DHT22;11874;48.228;11.684;2022-09-29T09:21:41;11.40;99.90
23403;DHT22;11874;48.228;11.684;2022-09-29T09:24:15;11.50;99.90
23403;DHT22;11874;48.228;11.684;2022-09-29T09:26:49;11.50;99.90
23403;DHT22;11874;48.228;11.684;2022-09-29T09:29:24;11.50;99.90
23403;DHT22;11874;48.228;11.684;2022-09-29T09:32:01;11.50;99.90
23403;DHT22;11874;48.228;11.684;2022-09-29T09:34:33;11.50;99.90
23403;DHT22;11874;48.228;11.684;2022-09-29T09:37:13;11.60;99.90
23403;DHT22;11874;48.228;11.684;2022-09-29T09:39:47;11.50;99.90
23403;DHT22;11874;48.228;11.684;2022-09-29T09:42:19;11.50;99.90
23403;DHT22;11874;48.228;11.684;2022-09-29T09:44:51;11.40;99.90
23403;DHT22;11874;48.228;11.684;2022-09-29T09:47:24;11.40;99.90
23403;DHT22;11874;48.228;11.684;2022-09-29T09:49:55;11.40;99.90
23403;DHT22;11874;48.228;11.684;2022-09-29T09:52:30;11.40;99.90
23403;DHT22;11874;48.228;11.684;2022-09-29T09:55:04;11.50;99.90
23403;DHT22;11874;48.228;11.684;2022-09-29T09:57:52;11.50;99.90
23403;DHT22;11874;48.228;11.684;2022-09-29T10:00:27;11.40;99.90
23403;DHT22;11874;48.228;11.684;2022-09-29T10:02:57;11.50;99.90
23403;DHT22;11874;48.228;11.684;2022-09-29T10:05:31;11.50;99.90
23403;DHT22;11874;48.228;11.684;2022-09-29T10:08:03;11.50;99.90
23403;DHT22;11874;48.228;11.684;2022-09-29T10:10:32;11.40;99.90
23403;DHT22;11874;48.228;11.684;2022-09-29T10:13:02;11.50;99.90
23403;DHT22;11874;48.228;11.684;2022-09-29T10:15:34;11.50;99.90
23403;DHT22;11874;48.228;11.684;2022-09-29T10:18:09;11.50;99.90
23403;DHT22;11874;48.228;11.684;2022-09-29T10:20:39;11.50;99.90
23403;DHT22;11874;48.228;11.684;2022-09-29T10:23:27;11.50;99.90
23403;DHT22;11874;48.228;11.684;2022-09-29T10:26:01;11.50;99.90
23403;DHT22;11874;48.228;11.684;2022-09-29T10:28:38;11.50;99.90
23403;DHT22;11874;48.228;11.684;2022-09-29T10:31:24;11.50;99.90
23403;DHT22;11874;48.228;11.684;2022-09-29T10:33:55;11.50;99.90
23403;DHT22;11874;48.228;11.684;2022-09-29T10:36:26;11.70;99.90
23403;DHT22;11874;48.228;11.684;2022-09-29T10:38:55;11.60;99.90
23403;DHT22;11874;48.228;11.684;2022-09-29T10:41:28;11.60;99.90
23403;DHT22;11874;48.228;11.684;2022-09-29T10:44:18;11.60;99.90
23403;DHT22;11874;48.228;11.684;2022-09-29T10:46:51;11.60;99.90
23403;DHT22;11874;48.228;11.684;2022-09-29T10:49:21;11.60;99.90
23403;DHT22;11874;48.228;11.684;2022-09-29T10:51:56;11.60;99.90
23403;DHT22;11874;48.228;11.684;2022-09-29T10:54:26;11.50;99.90
23403;DHT22;11874;48.228;11.684;2022-09-29T10:56:54;11.60;99.90
23403;DHT22;11874;48.228;11.684;2022-09-29T10:59:24;11.60;99.90
23403;DHT22;11874;48.228;11.684;2022-09-29T11:01:56;11.60;99.90
23403;DHT22;11874;48.228;11.684;2022-09-29T11:04:27;11.60;99.90
23403;DHT22;11874;48.228;11.684;2022-09-29T11:06:57;11.60;99.90
23403;DHT22;11874;48.228;11.684;2022-09-29T11:09:38;11.60;99.90
23403;DHT22;11874;48.228;11.684;2022-09-29T11:12:25;11.60;99.90
23403;DHT22;11874;48.228;11.684;2022-09-29T11:14:53;11.60;99.90
23403;DHT22;11874;48.228;11.684;2022-09-29T11:17:24;11.60;99.90
23403;DHT22;11874;48.228;11.684;2022-09-29T11:19:55;11.70;99.90
23403;DHT22;11874;48.228;11.684;2022-09-29T11:22:49;11.70;99.90
23403;DHT22;11874;48.228;11.684;2022-09-29T11:25:34;11.70;99.90
23403;DHT22;11874;48.228;11.684;2022-09-29T11:28:26;11.70;99.90
23403;DHT22;11874;48.228;11.684;2022-09-29T11:31:13;11.70;99.90
23403;DHT22;11874;48.228;11.684;2022-09-29T11:33:55;11.70;99.90
23403;DHT22;11874;48.228;11.684;2022-09-29T11:36:35;11.80;99.90
23403;DHT22;11874;48.228;11.684;2022-09-29T11:39:23;11.80;99.90
23403;DHT22;11874;48.228;11.684;2022-09-29T11:42:01;11.80;99.90
23403;DHT22;11874;48.228;11.684;2022-09-29T11:47:47;11.80;99.90
23403;DHT22;11874;48.228;11.684;2022-09-29T11:50:30;11.80;99.90
23403;DHT22;11874;48.228;11.684;2022-09-29T11:53:30;11.80;99.90
23403;DHT22;11874;48.228;11.684;2022-09-29T11:56:13;11.80;99.90
23403;DHT22;11874;48.228;11.684;2022-09-29T11:58:58;11.70;99.90
23403;DHT22;11874;48.228;11.684;2022-09-29T12:01:41;11.70;99.90
23403;DHT22;11874;48.228;11.684;2022-09-29T12:04:22;11.70;99.90
23403;DHT22;11874;48.228;11.684;2022-09-29T12:07:05;11.70;99.90
23403;DHT22;11874;48.228;11.684;2022-09-29T12:10:12;11.70;99.90
23403;DHT22;11874;48.228;11.684;2022-09-29T12:12:46;11.70;99.90
23403;DHT22;11874;48.228;11.684;2022-09-29T12:15:27;11.70;99.90
23403;DHT22;11874;48.228;11.684;2022-09-29T12:18:12;11.80;99.90
23403;DHT22;11874;48.228;11.684;2022-09-29T12:20:43;11.70;99.90
23403;DHT22;11874;48.228;11.684;2022-09-29T12:23:15;11.80;99.90
23403;DHT22;11874;48.228;11.684;2022-09-29T12:25:51;11.80;99.90
23403;DHT22;11874;48.228;11.684;2022-09-29T12:28:24;11.80;99.90
23403;DHT22;11874;48.228;11.684;2022-09-29T12:30:57;11.80;99.90
23403;DHT22;11874;48.228;11.684;2022-09-29T12:33:32;11.70;99.90
23403;DHT22;11874;48.228;11.684;2022-09-29T12:36:12;11.90;99.90
23403;DHT22;11874;48.228;11.684;2022-09-29T12:39:00;11.80;99.90
23403;DHT22;11874;48.228;11.684;2022-09-29T12:41:37;11.80;99.90
23403;DHT22;11874;48.228;11.684;2022-09-29T12:44:13;11.90;99.90
23403;DHT22;11874;48.228;11.684;2022-09-29T12:46:45;11.90;99.90
23403;DHT22;11874;48.228;11.684;2022-09-29T12:49:18;11.90;99.90
23403;DHT22;11874;48.228;11.684;2022-09-29T12:51:49;11.90;99.90
23403;DHT22;11874;48.228;11.684;2022-09-29T12:54:22;12.00;99.90
23403;DHT22;11874;48.228;11.684;2022-09-29T12:56:56;12.00;99.90
23403;DHT22;11874;48.228;11.684;2022-09-29T12:59:31;12.10;99.90
23403;DHT22;11874;48.228;11.684;2022-09-29T13:02:10;12.00;99.90
23403;DHT22;11874;48.228;11.684;2022-09-29T13:05:00;12.00;99.90
23403;DHT22;11874;48.228;11.684;2022-09-29T13:07:47;12.10;99.90
23403;DHT22;11874;48.228;11.684;2022-09-29T13:10:43;12.10;99.90
23403;DHT22;11874;48.228;11.684;2022-09-29T13:16:19;12.10;99.90
23403;DHT22;11874;48.228;11.684;2022-09-29T13:19:20;12.10;99.90
23403;DHT22;11874;48.228;11.684;2022-09-29T13:22:32;12.10;99.90
23403;DHT22;11874;48.228;11.684;2022-09-29T13:25:13;12.10;99.90
23403;DHT22;11874;48.228;11.684;2022-09-29T13:27:45;12.10;99.90
23403;DHT22;11874;48.228;11.684;2022-09-29T13:30:15;12.10;99.90
23403;DHT22;11874;48.228;11.684;2022-09-29T13:32:47;12.10;99.90
23403;DHT22;11874;48.228;11.684;2022-09-29T13:35:17;12.10;99.90
23403;DHT22;11874;48.228;11.684;2022-09-29T13:37:49;12.10;99.90
23403;DHT22;11874;48.228;11.684;2022-09-29T13:40:23;12.10;99.90
23403;DHT22;11874;48.228;11.684;2022-09-29T13:42:54;12.10;99.90
23403;DHT22;11874;48.228;11.684;2022-09-29T13:45:40;12.10;99.90
23403;DHT22;11874;48.228;11.684;2022-09-29T13:48:33;12.00;99.90
23403;DHT22;11874;48.228;11.684;2022-09-29T13:51:22;12.00;99.90
23403;DHT22;11874;48.228;11.684;2022-09-29T13:54:24;12.00;99.90
23403;DHT22;11874;48.228;11.684;2022-09-29T14:03:05;12.00;99.90
23403;DHT22;11874;48.228;11.684;2022-09-29T14:05:45;11.90;99.90
23403;DHT22;11874;48.228;11.684;2022-09-29T14:08:18;11.90;99.90
23403;DHT22;11874;48.228;11.684;2022-09-29T14:10:51;11.90;99.90
23403;DHT22;11874;48.228;11.684;2022-09-29T14:13:24;11.90;99.90
23403;DHT22;11874;48.228;11.684;2022-09-29T14:16:08;11.90;99.90
23403;DHT22;11874;48.228;11.684;2022-09-29T14:18:41;11.90;99.90
23403;DHT22;11874;48.228;11.684;2022-09-29T14:21:12;11.80;99.90
23403;DHT22;11874;48.228;11.684;2022-09-29T14:23:49;11.80;99.90
23403;DHT22;11874;48.228;11.684;2022-09-29T14:26:43;11.80;99.90
23403;DHT22;11874;48.228;11.684;2022-09-29T14:29:16;11.80;99.90
23403;DHT22;11874;48.228;11.684;2022-09-29T14:31:52;11.80;99.90
23403;DHT22;11874;48.228;11.684;2022-09-29T14:34:22;11.80;99.90
23403;DHT22;11874;48.228;11.684;2022-09-29T14:36:52;11.80;99.90
23403;DHT22;11874;48.228;11.684;2022-09-29T14:39:21;11.80;99.90
23403;DHT22;11874;48.228;11.684;2022-09-29T14:41:53;11.70;99.90
23403;DHT22;11874;48.228;11.684;2022-09-29T14:44:24;11.70;99.90
23403;DHT22;11874;48.228;11.684;2022-09-29T14:47:06;11.70;99.90
23403;DHT22;11874;48.228;11.684;2022-09-29T14:50:04;11.70;99.90
23403;DHT22;11874;48.228;11.684;2022-09-29T14:53:01;11.70;99.90
23403;DHT22;11874;48.228;11.684;2022-09-29T14:55:41;11.70;99.90
23403;DHT22;11874;48.228;11.684;2022-09-29T14:58:25;11.60;99.90
23403;DHT22;11874;48.228;11.684;2022-09-29T15:01:04;11.60;99.90
23403;DHT22;11874;48.228;11.684;2022-09-29T15:03:43;11.70;99.90
23403;DHT22;11874;48.228;11.684;2022-09-29T15:06:14;11.60;99.90
23403;DHT22;11874;48.228;11.684;2022-09-29T15:08:51;11.60;99.90
23403;DHT22;11874;48.228;11.684;2022-09-29T15:11:31;11.50;99.90
23403;DHT22;11874;48.228;11.684;2022-09-29T15:14:00;11.60;99.90
23403;DHT22;11874;48.228;11.684;2022-09-29T15:16:40;11.60;99.90
23403;DHT22;11874;48.228;11.684;2022-09-29T15:19:29;11.60;99.90
23403;DHT22;11874;48.228;11.684;2022-09-29T15:22:14;11.60;99.90
23403;DHT22;11874;48.228;11.684;2022-09-29T15:24:54;11.70;99.90
23403;DHT22;11874;48.228;11.684;2022-09-29T15:27:25;11.70;99.90
23403;DHT22;11874;48.228;11.684;2022-09-29T15:29:55;11.60;99.90
23403;DHT22;11874;48.228;11.684;2022-09-29T15:32:25;11.60;99.90
23403;DHT22;11874;48.228;11.684;2022-09-29T15:35:01;11.50;99.90
23403;DHT22;11874;48.228;11.684;2022-09-29T15:40:34;11.50;99.90
23403;DHT22;11874;48.228;11.684;2022-09-29T15:43:18;11.50;99.90
23403;DHT22;11874;48.228;11.684;2022-09-29T15:45:55;11.50;99.90
23403;DHT22;11874;48.228;11.684;2022-09-29T15:48:27;11.50;99.90
23403;DHT22;11874;48.228;11.684;2022-09-29T15:50:56;11.50;99.90
23403;DHT22;11874;48.228;11.684;2022-09-29T15:53:25;11.50;99.90
23403;DHT22;11874;48.228;11.684;2022-09-29T15:55:54;11.50;99.90
23403;DHT22;11874;48.228;11.684;2022-09-29T15:58:42;11.40;99.90
23403;DHT22;11874;48.228;11.684;2022-09-29T16:01:12;11.40;99.90
23403;DHT22;11874;48.228;11.684;2022-09-29T16:03:43;11.40;99.90
23403;DHT22;11874;48.228;11.684;2022-09-29T16:06:26;11.40;99.90
23403;DHT22;11874;48.228;11.684;2022-09-29T16:08:56;11.40;99.90
23403;DHT22;11874;48.228;11.684;2022-09-29T16:11:29;11.40;99.90
23403;DHT22;11874;48.228;11.684;2022-09-29T16:14:00;11.40;99.90